Time;durP1;ratioP1;P1;durP2;ratioP2;P2;SDS_P1;SDS_P2;PMS_P1;PMS_P2;Temp;Humidity;BMP_temperature;BMP_pressure;BME280_temperature;BME280_humidity;BME280_pressure;Samples;Min_cycle;Max_cycle;Signal;HPM_P1;HPM_P2
2021/01/19 00:01:23;;;;;;;10.43;4.95;;;;;;;;;;5084554;28;20269;-65
2021/01/19 00:03:48;;;;;;;10.13;4.70;;;;;;;;;;5087345;28;20020;-65
2021/01/19 00:06:13;;;;;;;8.73;3.63;;;;;;;;;;5087214;28;20020;-65
2021/01/19 00:08:39;;;;;;;13.48;5.25;;;;;;;;;;5084200;28;20345;-66
2021/01/19 00:11:05;;;;;;;11.50;5.70;;;;;;;;;;5084981;28;20044;-66
2021/01/19 00:13:30;;;;;;;8.02;4.28;;;;;;;;;;5086776;28;20046;-66
2021/01/19 00:15:56;;;;;;;11.77;3.95;;;;;;;;;;5086290;28;20103;-65
2021/01/19 00:18:21;;;;;;;15.77;4.32;;;;;;;;;;5084033;28;20028;-66
2021/01/19 00:20:46;;;;;;;12.30;4.63;;;;;;;;;;5085226;28;20100;-66
2021/01/19 00:23:14;;;;;;;11.77;4.10;;;;;;;;;;5085517;28;20266;-66
2021/01/19 00:25:40;;;;;;;12.10;4.50;;;;;;;;;;5085743;28;20020;-66
2021/01/19 00:30:43;;;;;;;12.45;5.18;;;;;;;;;;5063613;28;20045;-69
2021/01/19 00:33:09;;;;;;;10.55;5.03;;;;;;;;;;5065627;28;20028;-69
2021/01/19 00:35:34;;;;;;;10.52;4.93;;;;;;;;;;5066135;28;20396;-69
2021/01/19 00:38:00;;;;;;;13.75;4.25;;;;;;;;;;5066458;28;20016;-69
2021/01/19 00:40:29;;;;;;;4.05;2.63;;;;;;;;;;5064440;28;20533;-69
2021/01/19 00:42:54;;;;;;;19.20;6.00;;;;;;;;;;5064456;28;20024;-68
2021/01/19 00:45:19;;;;;;;10.25;4.05;;;;;;;;;;5065659;28;20028;-69
2021/01/19 00:47:45;;;;;;;14.23;3.83;;;;;;;;;;5066038;28;20036;-68
2021/01/19 00:50:10;;;;;;;6.15;3.03;;;;;;;;;;5067890;28;20012;-68
2021/01/19 00:52:36;;;;;;;8.65;2.75;;;;;;;;;;5065703;28;20522;-68
2021/01/19 00:55:01;;;;;;;10.30;3.38;;;;;;;;;;5065616;28;20051;-68
2021/01/19 00:57:26;;;;;;;7.40;2.03;;;;;;;;;;5065955;28;20074;-68
2021/01/19 00:59:52;;;;;;;10.53;3.43;;;;;;;;;;5065730;28;20373;-67
2021/01/19 01:02:17;;;;;;;7.25;2.45;;;;;;;;;;5066952;28;20263;-67
2021/01/19 01:04:43;;;;;;;8.95;2.03;;;;;;;;;;5065750;28;20020;-68
2021/01/19 01:07:08;;;;;;;2.65;1.50;;;;;;;;;;5065837;28;20038;-68
2021/01/19 01:09:37;;;;;;;4.17;1.13;;;;;;;;;;5065506;28;20035;-68
2021/01/19 01:12:02;;;;;;;12.68;2.28;;;;;;;;;;5066049;28;20365;-68
2021/01/19 01:14:27;;;;;;;3.05;1.70;;;;;;;;;;5064948;28;20465;-68
2021/01/19 01:16:52;;;;;;;3.15;1.80;;;;;;;;;;5065184;28;20455;-68
2021/01/19 01:19:18;;;;;;;3.00;1.80;;;;;;;;;;5066082;28;20023;-68
2021/01/19 01:21:43;;;;;;;5.30;2.55;;;;;;;;;;5066331;28;20952;-67
2021/01/19 01:24:08;;;;;;;7.60;1.63;;;;;;;;;;5065418;28;20473;-67
2021/01/19 01:26:34;;;;;;;2.35;1.27;;;;;;;;;;5065586;28;20033;-67
2021/01/19 01:28:59;;;;;;;3.55;1.38;;;;;;;;;;5066061;28;20025;-67
2021/01/19 01:31:24;;;;;;;3.10;1.95;;;;;;;;;;5065603;28;20077;-67
2021/01/19 01:33:49;;;;;;;2.33;1.30;;;;;;;;;;5066044;28;20082;-67
2021/01/19 01:36:15;;;;;;;7.18;2.55;;;;;;;;;;5065298;28;20038;-68
2021/01/19 01:38:40;;;;;;;9.90;3.25;;;;;;;;;;5064749;28;20447;-68
2021/01/19 01:41:15;;;;;;;5.55;2.08;;;;;;;;;;5064946;28;20025;-67
2021/01/19 01:43:41;;;;;;;6.10;2.00;;;;;;;;;;5065296;28;20048;-67
2021/01/19 01:46:08;;;;;;;6.20;1.40;;;;;;;;;;5064685;28;20765;-67
2021/01/19 01:48:33;;;;;;;3.58;1.58;;;;;;;;;;5066290;28;20037;-69
2021/01/19 01:50:58;;;;;;;9.00;2.03;;;;;;;;;;5065119;28;20396;-67
2021/01/19 01:53:24;;;;;;;2.87;1.50;;;;;;;;;;5065448;28;20032;-67
2021/01/19 01:55:50;;;;;;;3.92;1.75;;;;;;;;;;5064829;28;20290;-67
2021/01/19 01:58:15;;;;;;;3.65;1.67;;;;;;;;;;5065661;28;20127;-67
2021/01/19 02:00:40;;;;;;;9.65;2.10;;;;;;;;;;5065773;28;20095;-67
2021/01/19 02:03:06;;;;;;;5.73;1.90;;;;;;;;;;5065516;28;20103;-67
2021/01/19 02:05:31;;;;;;;12.43;2.43;;;;;;;;;;5065031;28;20263;-67
2021/01/19 02:08:18;;;;;;;4.38;1.65;;;;;;;;;;5065581;28;20363;-67
2021/01/19 02:10:53;;;;;;;10.07;2.30;;;;;;;;;;5065579;28;20055;-67
2021/01/19 02:13:25;;;;;;;6.57;2.58;;;;;;;;;;5064362;28;20103;-67
2021/01/19 02:15:55;;;;;;;10.32;2.63;;;;;;;;;;5064046;28;20029;-67
2021/01/19 02:18:20;;;;;;;8.02;2.92;;;;;;;;;;5065888;28;20512;-67
2021/01/19 02:20:45;;;;;;;13.38;2.20;;;;;;;;;;5064978;28;20151;-67
2021/01/19 02:23:15;;;;;;;8.02;2.22;;;;;;;;;;5065335;28;20634;-67
2021/01/19 02:25:40;;;;;;;5.72;2.15;;;;;;;;;;5063508;28;21632;-67
2021/01/19 02:28:14;;;;;;;6.60;2.03;;;;;;;;;;5066124;28;20031;-67
2021/01/19 02:30:39;;;;;;;7.88;2.08;;;;;;;;;;5064109;28;20310;-67
2021/01/19 02:33:10;;;;;;;9.27;2.13;;;;;;;;;;5064972;28;20094;-67
2021/01/19 02:35:54;;;;;;;2.95;1.70;;;;;;;;;;5064177;28;20286;-67
2021/01/19 02:38:24;;;;;;;5.38;2.67;;;;;;;;;;5064762;28;20466;-67
2021/01/19 02:40:52;;;;;;;5.30;2.30;;;;;;;;;;5064098;28;20036;-67
2021/01/19 02:43:25;;;;;;;9.95;2.63;;;;;;;;;;5064838;28;20259;-67
2021/01/19 02:45:50;;;;;;;9.90;2.05;;;;;;;;;;5064242;28;20024;-67
2021/01/19 02:48:16;;;;;;;4.82;2.13;;;;;;;;;;5064491;28;20033;-67
2021/01/19 02:50:41;;;;;;;5.07;1.65;;;;;;;;;;5050622;28;20035;-67
2021/01/19 02:53:06;;;;;;;6.00;2.25;;;;;;;;;;5049796;28;20029;-67
2021/01/19 02:55:32;;;;;;;12.75;2.00;;;;;;;;;;5068159;28;20032;-67
2021/01/19 02:58:03;;;;;;;7.30;2.85;;;;;;;;;;5057998;28;20626;-67
2021/01/19 03:00:44;;;;;;;13.43;3.38;;;;;;;;;;5068260;28;20472;-67
2021/01/19 03:03:10;;;;;;;5.93;2.08;;;;;;;;;;5069568;28;20388;-67
2021/01/19 03:05:37;;;;;;;7.47;2.53;;;;;;;;;;5067579;28;20021;-67
2021/01/19 03:08:03;;;;;;;9.18;1.75;;;;;;;;;;5068495;28;20021;-67
2021/01/19 03:10:30;;;;;;;9.43;2.30;;;;;;;;;;5067428;28;20025;-67
2021/01/19 03:12:55;;;;;;;6.82;1.85;;;;;;;;;;5067240;28;20024;-67
2021/01/19 03:15:21;;;;;;;16.95;2.17;;;;;;;;;;5067800;28;20032;-67
2021/01/19 03:17:46;;;;;;;13.07;1.95;;;;;;;;;;5068317;28;20058;-67
2021/01/19 03:20:13;;;;;;;3.55;1.77;;;;;;;;;;5067248;28;20051;-67
2021/01/19 03:22:39;;;;;;;4.18;2.58;;;;;;;;;;5068538;28;20055;-67
2021/01/19 03:25:04;;;;;;;8.45;2.30;;;;;;;;;;5067974;28;20032;-67
2021/01/19 03:27:29;;;;;;;9.13;1.85;;;;;;;;;;5068825;28;20029;-67
2021/01/19 03:29:54;;;;;;;2.80;1.20;;;;;;;;;;5068417;28;20024;-67
2021/01/19 03:32:20;;;;;;;8.07;2.13;;;;;;;;;;5068194;28;20266;-67
2021/01/19 03:34:45;;;;;;;5.20;1.20;;;;;;;;;;5067167;28;20012;-67
2021/01/19 03:37:10;;;;;;;6.45;2.03;;;;;;;;;;5068163;28;20518;-67
2021/01/19 03:39:35;;;;;;;5.78;1.10;;;;;;;;;;5067174;28;20043;-67
2021/01/19 03:42:00;;;;;;;9.68;1.50;;;;;;;;;;5067802;28;20025;-67
2021/01/19 03:44:25;;;;;;;5.30;1.63;;;;;;;;;;5067602;28;20025;-67
2021/01/19 03:46:51;;;;;;;4.68;1.02;;;;;;;;;;5067359;28;20107;-67
2021/01/19 03:49:16;;;;;;;7.22;1.88;;;;;;;;;;5067081;28;20029;-67
2021/01/19 03:51:41;;;;;;;4.53;1.30;;;;;;;;;;5066991;28;20052;-67
2021/01/19 03:54:06;;;;;;;17.33;2.65;;;;;;;;;;5065967;28;20056;-67
2021/01/19 03:56:32;;;;;;;8.90;2.67;;;;;;;;;;5068179;28;20024;-67
2021/01/19 03:58:57;;;;;;;4.53;1.58;;;;;;;;;;5066547;28;20047;-67
2021/01/19 04:01:22;;;;;;;18.73;2.20;;;;;;;;;;5066964;28;20056;-68
2021/01/19 04:03:47;;;;;;;8.27;1.85;;;;;;;;;;5066921;28;20115;-67
2021/01/19 04:06:12;;;;;;;8.87;1.97;;;;;;;;;;5067559;28;20074;-68
2021/01/19 04:08:38;;;;;;;7.93;2.25;;;;;;;;;;5067043;28;20290;-68
2021/01/19 04:11:04;;;;;;;14.80;3.72;;;;;;;;;;5066820;28;20073;-68
2021/01/19 04:13:29;;;;;;;16.10;2.65;;;;;;;;;;5066922;28;20028;-67
2021/01/19 04:15:55;;;;;;;8.00;2.25;;;;;;;;;;5066939;28;20475;-67
2021/01/19 04:18:20;;;;;;;10.70;2.03;;;;;;;;;;5065995;28;20361;-67
2021/01/19 04:20:46;;;;;;;5.68;2.22;;;;;;;;;;5065996;28;20051;-67
2021/01/19 04:23:14;;;;;;;6.57;1.65;;;;;;;;;;5066669;28;20047;-67
2021/01/19 04:25:39;;;;;;;17.27;3.75;;;;;;;;;;5066371;28;20755;-67
2021/01/19 04:28:04;;;;;;;5.32;1.67;;;;;;;;;;5067902;28;20028;-67
2021/01/19 04:30:30;;;;;;;9.52;3.70;;;;;;;;;;5066645;28;20032;-67
2021/01/19 04:32:55;;;;;;;9.93;2.25;;;;;;;;;;5065204;28;20016;-67
2021/01/19 04:35:20;;;;;;;7.78;2.08;;;;;;;;;;5066637;28;20449;-67
2021/01/19 04:37:45;;;;;;;6.70;2.25;;;;;;;;;;5066803;28;20029;-67
2021/01/19 04:40:11;;;;;;;13.20;2.97;;;;;;;;;;5066262;28;20021;-67
2021/01/19 04:42:36;;;;;;;11.27;2.42;;;;;;;;;;5065586;28;20275;-68
2021/01/19 04:45:06;;;;;;;8.70;2.53;;;;;;;;;;5066018;28;20107;-67
2021/01/19 04:47:31;;;;;;;4.05;1.25;;;;;;;;;;5066628;28;20032;-67
2021/01/19 04:49:58;;;;;;;14.88;2.47;;;;;;;;;;5066648;28;20044;-67
2021/01/19 04:52:26;;;;;;;10.82;1.98;;;;;;;;;;5065093;28;20078;-67
2021/01/19 04:55:02;;;;;;;12.07;3.22;;;;;;;;;;5065672;28;20530;-68
2021/01/19 04:57:28;;;;;;;10.18;2.65;;;;;;;;;;5065630;28;20021;-67
2021/01/19 04:59:58;;;;;;;12.02;2.25;;;;;;;;;;5065221;28;20103;-68
2021/01/19 05:02:44;;;;;;;11.05;2.38;;;;;;;;;;5048296;28;20376;-68
2021/01/19 05:05:21;;;;;;;7.47;2.33;;;;;;;;;;5010191;28;20795;-68
2021/01/19 05:08:05;;;;;;;5.00;1.63;;;;;;;;;;5065366;28;20024;-68
2021/01/19 05:10:33;;;;;;;16.52;3.05;;;;;;;;;;5065779;28;20016;-68
2021/01/19 05:12:59;;;;;;;5.05;1.95;;;;;;;;;;5064686;28;20021;-68
2021/01/19 05:15:25;;;;;;;14.60;3.67;;;;;;;;;;5065734;28;20059;-68
2021/01/19 05:17:53;;;;;;;19.88;3.00;;;;;;;;;;5066133;28;20456;-68
2021/01/19 05:20:21;;;;;;;10.00;3.22;;;;;;;;;;5064550;28;20032;-68
2021/01/19 05:22:46;;;;;;;2.58;1.40;;;;;;;;;;5063800;28;20012;-68
2021/01/19 05:25:11;;;;;;;6.23;1.60;;;;;;;;;;5066850;28;20036;-68
2021/01/19 05:27:36;;;;;;;11.80;1.83;;;;;;;;;;5066565;28;20730;-68
2021/01/19 05:30:06;;;;;;;14.68;2.70;;;;;;;;;;5061221;28;20536;-68
2021/01/19 05:32:41;;;;;;;7.53;1.90;;;;;;;;;;5061419;28;20173;-68
2021/01/19 05:35:14;;;;;;;9.02;1.92;;;;;;;;;;5061713;28;20271;-68
2021/01/19 05:37:41;;;;;;;7.95;1.77;;;;;;;;;;5060589;28;20036;-68
2021/01/19 05:40:06;;;;;;;10.43;1.77;;;;;;;;;;5061660;28;20485;-68
2021/01/19 05:42:31;;;;;;;10.48;2.10;;;;;;;;;;5058384;28;20059;-68
2021/01/19 05:45:04;;;;;;;22.60;2.92;;;;;;;;;;5060517;28;20025;-69
2021/01/19 05:47:31;;;;;;;6.38;2.72;;;;;;;;;;5064097;28;20099;-68
2021/01/19 05:49:58;;;;;;;18.17;3.78;;;;;;;;;;5065714;28;20024;-69
2021/01/19 05:52:29;;;;;;;8.35;2.92;;;;;;;;;;5045639;28;20107;-68
2021/01/19 05:54:55;;;;;;;5.57;2.13;;;;;;;;;;5058628;28;20028;-68
2021/01/19 05:57:21;;;;;;;2.05;0.77;;;;;;;;;;5061475;28;20032;-68
2021/01/19 05:59:47;;;;;;;16.83;2.63;;;;;;;;;;5060253;28;20518;-69
2021/01/19 06:02:14;;;;;;;5.63;1.98;;;;;;;;;;5060562;28;20024;-69
2021/01/19 06:04:43;;;;;;;11.95;1.50;;;;;;;;;;5060666;28;20021;-69
2021/01/19 06:07:09;;;;;;;4.93;1.85;;;;;;;;;;5060323;28;20108;-69
2021/01/19 06:09:35;;;;;;;16.50;2.03;;;;;;;;;;5044684;28;20534;-69
2021/01/19 06:12:01;;;;;;;14.90;3.15;;;;;;;;;;5059726;28;20063;-69
2021/01/19 06:14:27;;;;;;;7.38;2.35;;;;;;;;;;5061231;28;20021;-68
2021/01/19 06:17:04;;;;;;;8.82;2.47;;;;;;;;;;5060614;28;20078;-68
2021/01/19 06:19:30;;;;;;;10.55;2.05;;;;;;;;;;5061705;28;20047;-69
2021/01/19 06:21:56;;;;;;;4.85;2.05;;;;;;;;;;5058813;28;20420;-68
2021/01/19 06:24:33;;;;;;;12.23;2.97;;;;;;;;;;5061930;28;20025;-68
2021/01/19 06:26:58;;;;;;;2.38;1.30;;;;;;;;;;5063450;28;20051;-68
2021/01/19 06:29:24;;;;;;;7.03;1.98;;;;;;;;;;5066045;28;20028;-68
2021/01/19 06:31:50;;;;;;;3.72;1.17;;;;;;;;;;5067980;28;20611;-68
2021/01/19 06:34:23;;;;;;;4.65;1.48;;;;;;;;;;5067544;28;20028;-68
2021/01/19 06:36:48;;;;;;;2.92;1.35;;;;;;;;;;5069201;28;20036;-68
2021/01/19 06:39:22;;;;;;;8.73;1.42;;;;;;;;;;5068089;28;20563;-68
2021/01/19 06:41:50;;;;;;;8.82;1.45;;;;;;;;;;5067538;28;20036;-68
2021/01/19 06:44:18;;;;;;;10.32;2.78;;;;;;;;;;5067691;28;20166;-68
2021/01/19 06:46:45;;;;;;;4.00;2.00;;;;;;;;;;5067937;28;20021;-68
2021/01/19 06:49:12;;;;;;;2.40;0.90;;;;;;;;;;5068784;28;20043;-68
2021/01/19 06:51:37;;;;;;;12.00;2.30;;;;;;;;;;5068792;28;20151;-69
2021/01/19 06:54:06;;;;;;;3.70;1.27;;;;;;;;;;5067533;28;20103;-69
2021/01/19 06:56:35;;;;;;;2.13;0.65;;;;;;;;;;5066909;28;20043;-69
2021/01/19 06:59:07;;;;;;;5.30;1.98;;;;;;;;;;5067058;28;20063;-69
2021/01/19 07:01:40;;;;;;;5.28;1.70;;;;;;;;;;5067869;28;20055;-69
2021/01/19 07:04:24;;;;;;;7.88;1.55;;;;;;;;;;5067681;28;20469;-69
2021/01/19 07:06:55;;;;;;;4.00;1.38;;;;;;;;;;5067745;28;20035;-69
2021/01/19 07:09:35;;;;;;;3.85;1.00;;;;;;;;;;5067580;28;20124;-69
2021/01/19 07:12:05;;;;;;;3.80;0.98;;;;;;;;;;5066945;28;20025;-69
2021/01/19 07:14:31;;;;;;;;;;;;;;;;;;5067644;28;20059;-69
2021/01/19 07:16:56;;;;;;;2.15;1.10;;;;;;;;;;5068525;28;19912;-69
2021/01/19 07:19:31;;;;;;;4.20;0.93;;;;;;;;;;5068452;28;20075;-69
2021/01/19 07:22:09;;;;;;;8.75;1.17;;;;;;;;;;5068577;28;20020;-69
2021/01/19 07:24:41;;;;;;;3.42;0.98;;;;;;;;;;5070529;28;20017;-69
2021/01/19 07:27:08;;;;;;;2.42;0.85;;;;;;;;;;5072126;28;20017;-69
2021/01/19 07:29:33;;;;;;;2.63;0.95;;;;;;;;;;5067539;28;20056;-69
2021/01/19 07:31:59;;;;;;;2.17;1.23;;;;;;;;;;5072839;28;20051;-69
2021/01/19 07:34:25;;;;;;;1.77;1.08;;;;;;;;;;5072943;28;20028;-69
2021/01/19 07:36:54;;;;;;;1.27;0.70;;;;;;;;;;5070345;28;20032;-69
2021/01/19 07:39:20;;;;;;;2.78;0.57;;;;;;;;;;5072538;28;20040;-69
2021/01/19 07:41:46;;;;;;;6.20;1.30;;;;;;;;;;5073194;28;20017;-69
2021/01/19 07:44:23;;;;;;;5.40;1.05;;;;;;;;;;5068873;28;20071;-69
2021/01/19 07:46:49;;;;;;;10.13;1.25;;;;;;;;;;5070289;28;20036;-69
2021/01/19 07:49:14;;;;;;;6.15;1.02;;;;;;;;;;5070739;28;20175;-69
2021/01/19 07:51:42;;;;;;;5.00;1.25;;;;;;;;;;5069249;28;20044;-68
2021/01/19 07:54:08;;;;;;;7.10;1.20;;;;;;;;;;5050308;28;20044;-68
2021/01/19 07:56:33;;;;;;;5.10;0.85;;;;;;;;;;5065888;28;20384;-68
2021/01/19 07:58:59;;;;;;;7.28;1.33;;;;;;;;;;5067072;28;20053;-68
2021/01/19 08:01:24;;;;;;;2.85;0.75;;;;;;;;;;5068670;28;20024;-68
2021/01/19 08:03:49;;;;;;;6.07;0.75;;;;;;;;;;5070862;28;20021;-68
2021/01/19 08:06:15;;;;;;;5.40;1.33;;;;;;;;;;5069396;28;20025;-68
2021/01/19 08:08:40;;;;;;;2.20;0.68;;;;;;;;;;5069137;28;20041;-68
2021/01/19 08:11:05;;;;;;;5.20;1.25;;;;;;;;;;5071568;28;20062;-68
2021/01/19 08:13:30;;;;;;;5.55;1.42;;;;;;;;;;5070860;28;20024;-68
2021/01/19 08:16:06;;;;;;;2.60;1.33;;;;;;;;;;5051773;28;20029;-68
2021/01/19 08:18:38;;;;;;;6.50;1.33;;;;;;;;;;5069991;28;20263;-68
2021/01/19 08:21:04;;;;;;;4.35;1.38;;;;;;;;;;5069668;28;20039;-68
2021/01/19 08:23:32;;;;;;;4.60;1.23;;;;;;;;;;5051808;28;20032;-68
2021/01/19 08:26:01;;;;;;;10.63;1.67;;;;;;;;;;5069809;28;20019;-68
2021/01/19 08:28:26;;;;;;;7.45;1.27;;;;;;;;;;5069249;28;20021;-68
2021/01/19 08:30:51;;;;;;;1.27;0.68;;;;;;;;;;5069214;28;20035;-68
2021/01/19 08:33:16;;;;;;;5.22;1.00;;;;;;;;;;5068931;28;20024;-68
2021/01/19 08:35:42;;;;;;;2.05;1.00;;;;;;;;;;5069748;28;20024;-68
2021/01/19 08:38:08;;;;;;;4.53;1.15;;;;;;;;;;5069718;28;20031;-68
2021/01/19 08:40:34;;;;;;;3.22;0.77;;;;;;;;;;5070047;28;20020;-68
2021/01/19 08:42:59;;;;;;;4.72;1.65;;;;;;;;;;5067725;28;20422;-68
2021/01/19 08:45:29;;;;;;;6.05;1.02;;;;;;;;;;5067098;28;20059;-68
2021/01/19 08:47:58;;;;;;;5.80;1.63;;;;;;;;;;5068271;28;20665;-68
2021/01/19 08:50:24;;;;;;;5.60;1.38;;;;;;;;;;5067992;28;20504;-68
2021/01/19 08:52:50;;;;;;;5.05;0.95;;;;;;;;;;5050060;28;20020;-68
2021/01/19 08:55:17;;;;;;;6.25;1.23;;;;;;;;;;5068579;28;20030;-68
2021/01/19 08:57:43;;;;;;;2.40;0.75;;;;;;;;;;5069425;28;20477;-68
2021/01/19 09:00:09;;;;;;;14.95;1.02;;;;;;;;;;5068282;28;20431;-68
2021/01/19 09:02:34;;;;;;;1.05;0.60;;;;;;;;;;5066674;28;20024;-68
2021/01/19 09:04:59;;;;;;;1.52;0.60;;;;;;;;;;5064185;28;20099;-68
2021/01/19 09:07:28;;;;;;;3.90;0.73;;;;;;;;;;5062294;28;20025;-68
2021/01/19 09:09:54;;;;;;;4.53;0.93;;;;;;;;;;5067314;28;20484;-68
2021/01/19 09:12:22;;;;;;;3.83;1.02;;;;;;;;;;5067439;28;20103;-68
2021/01/19 09:14:50;;;;;;;1.38;0.73;;;;;;;;;;5064332;28;20039;-68
2021/01/19 09:17:28;;;;;;;5.03;0.95;;;;;;;;;;5067742;28;20025;-68
2021/01/19 09:20:03;;;;;;;2.13;0.60;;;;;;;;;;5062982;28;20025;-68
2021/01/19 09:22:28;;;;;;;1.52;0.45;;;;;;;;;;5063550;28;20145;-68
2021/01/19 09:24:55;;;;;;;1.63;0.73;;;;;;;;;;5059276;28;20451;-68
2021/01/19 09:27:20;;;;;;;8.32;0.80;;;;;;;;;;5051126;28;20025;-68
2021/01/19 09:29:45;;;;;;;1.52;0.47;;;;;;;;;;5056854;28;20653;-68
2021/01/19 09:32:12;;;;;;;3.00;0.65;;;;;;;;;;5070584;28;20017;-68
2021/01/19 09:34:38;;;;;;;5.50;0.90;;;;;;;;;;5070341;28;20032;-68
2021/01/19 09:37:03;;;;;;;1.15;0.70;;;;;;;;;;5069926;28;20028;-68
2021/01/19 09:39:29;;;;;;;6.90;1.35;;;;;;;;;;5067990;28;20020;-68
2021/01/19 09:41:57;;;;;;;1.88;1.00;;;;;;;;;;5068113;28;20366;-68
2021/01/19 09:44:22;;;;;;;0.60;0.35;;;;;;;;;;5070434;28;20158;-68
2021/01/19 09:46:52;;;;;;;1.25;0.50;;;;;;;;;;5070310;28;20793;-68
2021/01/19 09:49:17;;;;;;;3.87;1.20;;;;;;;;;;5069609;28;20023;-68
2021/01/19 09:51:43;;;;;;;2.28;0.80;;;;;;;;;;5070275;28;20496;-69
2021/01/19 09:54:08;;;;;;;1.35;0.35;;;;;;;;;;5070538;28;20366;-68
2021/01/19 09:56:33;;;;;;;1.27;0.50;;;;;;;;;;5070927;28;20040;-69
2021/01/19 09:59:02;;;;;;;2.35;0.80;;;;;;;;;;5069532;28;20078;-68
2021/01/19 10:01:28;;;;;;;2.25;0.60;;;;;;;;;;5067135;28;20051;-68
2021/01/19 10:03:53;;;;;;;3.38;0.70;;;;;;;;;;5067913;28;20029;-68
2021/01/19 10:06:19;;;;;;;1.20;0.50;;;;;;;;;;5067591;28;20073;-68
2021/01/19 10:08:50;;;;;;;4.15;0.90;;;;;;;;;;5065930;28;20021;-69
2021/01/19 10:11:26;;;;;;;2.13;0.75;;;;;;;;;;5067580;28;20103;-69
2021/01/19 10:13:51;;;;;;;2.70;0.85;;;;;;;;;;5068705;28;20489;-68
2021/01/19 10:16:25;;;;;;;1.73;0.83;;;;;;;;;;5066767;28;20035;-68
2021/01/19 10:18:50;;;;;;;1.45;0.82;;;;;;;;;;5066979;28;20831;-68
2021/01/19 10:21:26;;;;;;;3.53;1.73;;;;;;;;;;5067420;28;20111;-69
2021/01/19 10:23:51;;;;;;;5.05;1.23;;;;;;;;;;5066481;28;20099;-69
2021/01/19 10:26:16;;;;;;;2.40;1.50;;;;;;;;;;5066552;28;20103;-69
2021/01/19 10:28:43;;;;;;;2.35;1.52;;;;;;;;;;5069410;28;20029;-68
2021/01/19 10:31:24;;;;;;;4.40;1.92;;;;;;;;;;5068470;28;20024;-69
2021/01/19 10:33:51;;;;;;;3.92;1.50;;;;;;;;;;5062026;28;20047;-69
2021/01/19 10:36:17;;;;;;;5.68;2.10;;;;;;;;;;5065428;28;20021;-68
2021/01/19 10:38:44;;;;;;;2.85;0.82;;;;;;;;;;5066268;28;20044;-68
2021/01/19 10:41:09;;;;;;;1.50;0.90;;;;;;;;;;5067124;28;22129;-68
2021/01/19 10:43:34;;;;;;;2.65;1.20;;;;;;;;;;5067357;28;20100;-68
2021/01/19 10:45:59;;;;;;;7.05;2.15;;;;;;;;;;5064130;28;20100;-68
2021/01/19 10:48:25;;;;;;;6.25;1.00;;;;;;;;;;5064949;28;20026;-68
2021/01/19 10:50:50;;;;;;;4.07;1.90;;;;;;;;;;5061009;28;20604;-68
2021/01/19 10:53:25;;;;;;;2.38;1.15;;;;;;;;;;5066115;28;20284;-68
2021/01/19 10:55:50;;;;;;;3.72;1.10;;;;;;;;;;5064626;28;20032;-69
2021/01/19 10:58:16;;;;;;;3.30;1.80;;;;;;;;;;5065803;28;20039;-69
2021/01/19 11:00:41;;;;;;;3.17;1.38;;;;;;;;;;5064899;28;20329;-68
2021/01/19 11:03:06;;;;;;;2.35;1.30;;;;;;;;;;5067091;28;20043;-69
2021/01/19 11:05:31;;;;;;;3.58;1.50;;;;;;;;;;5065913;28;20023;-69
2021/01/19 11:07:56;;;;;;;7.30;1.80;;;;;;;;;;5064559;28;20023;-69
2021/01/19 11:10:25;;;;;;;4.20;1.48;;;;;;;;;;5067800;28;20388;-69
2021/01/19 11:12:51;;;;;;;3.50;1.58;;;;;;;;;;5070229;28;20429;-69
2021/01/19 11:15:16;;;;;;;2.50;1.33;;;;;;;;;;5070946;28;20052;-69
2021/01/19 11:17:41;;;;;;;0.93;0.50;;;;;;;;;;5069082;28;20257;-68
2021/01/19 11:20:08;;;;;;;4.45;2.20;;;;;;;;;;5071269;28;20025;-68
2021/01/19 11:22:33;;;;;;;7.63;1.67;;;;;;;;;;5069395;28;20085;-69
2021/01/19 11:24:58;;;;;;;3.78;1.30;;;;;;;;;;5068646;28;20099;-68
2021/01/19 11:27:24;;;;;;;4.35;2.05;;;;;;;;;;5069930;28;20059;-69
2021/01/19 11:29:49;;;;;;;7.10;2.47;;;;;;;;;;5071481;28;20037;-68
2021/01/19 11:32:14;;;;;;;8.75;1.92;;;;;;;;;;5057346;28;20020;-68
2021/01/19 11:34:42;;;;;;;8.05;2.72;;;;;;;;;;5068922;28;20529;-68
2021/01/19 11:37:08;;;;;;;1.77;1.17;;;;;;;;;;5070365;28;20068;-68
2021/01/19 11:39:33;;;;;;;5.78;1.90;;;;;;;;;;5071121;28;20123;-68
2021/01/19 11:41:58;;;;;;;3.40;1.60;;;;;;;;;;5071405;28;20028;-68
2021/01/19 11:44:23;;;;;;;6.80;2.20;;;;;;;;;;5070668;28;20021;-68
2021/01/19 11:46:49;;;;;;;4.03;1.58;;;;;;;;;;5072429;28;20039;-68
2021/01/19 11:49:14;;;;;;;4.13;1.40;;;;;;;;;;5070165;28;20029;-68
2021/01/19 11:51:39;;;;;;;1.55;0.73;;;;;;;;;;5068753;28;20038;-68
2021/01/19 11:54:05;;;;;;;2.58;1.13;;;;;;;;;;5068814;28;20021;-68
2021/01/19 11:56:38;;;;;;;1.25;0.50;;;;;;;;;;5069526;28;20031;-68
2021/01/19 11:59:04;;;;;;;0.60;0.43;;;;;;;;;;5071646;28;20023;-68
2021/01/19 12:01:29;;;;;;;1.50;0.70;;;;;;;;;;5071859;28;20500;-68
2021/01/19 12:03:54;;;;;;;0.80;0.50;;;;;;;;;;5070973;28;20028;-68
2021/01/19 12:06:20;;;;;;;1.70;0.93;;;;;;;;;;5072138;28;20032;-68
2021/01/19 12:08:46;;;;;;;5.05;0.80;;;;;;;;;;5070475;28;20025;-68
2021/01/19 12:11:11;;;;;;;1.17;0.82;;;;;;;;;;5071213;28;20074;-68
2021/01/19 12:13:37;;;;;;;3.13;1.08;;;;;;;;;;5071942;28;20430;-68
2021/01/19 12:16:02;;;;;;;3.95;0.85;;;;;;;;;;5070912;28;20086;-68
2021/01/19 12:18:27;;;;;;;0.90;0.50;;;;;;;;;;5070871;28;20111;-68
2021/01/19 12:20:52;;;;;;;2.20;0.75;;;;;;;;;;5072027;28;20005;-68
2021/01/19 12:23:18;;;;;;;2.00;0.85;;;;;;;;;;5070962;28;20074;-68
2021/01/19 12:25:43;;;;;;;1.90;0.90;;;;;;;;;;5071018;28;20024;-68
2021/01/19 12:28:08;;;;;;;6.50;0.80;;;;;;;;;;5071719;28;20788;-68
2021/01/19 12:30:33;;;;;;;2.05;0.85;;;;;;;;;;5071755;28;20266;-68
2021/01/19 12:32:58;;;;;;;0.97;0.63;;;;;;;;;;5098239;22;20044;-67
2021/01/19 12:35:24;;;;;;;1.40;0.63;;;;;;;;;;5077570;28;20263;-66
2021/01/19 12:37:52;;;;;;;1.40;0.57;;;;;;;;;;5082741;28;20032;-67
2021/01/19 12:40:18;;;;;;;1.83;0.55;;;;;;;;;;5088789;28;20467;-66
2021/01/19 12:42:43;;;;;;;5.97;0.73;;;;;;;;;;5090945;28;20024;-66
2021/01/19 12:45:08;;;;;;;1.00;0.50;;;;;;;;;;5088208;28;20020;-66
2021/01/19 12:47:33;;;;;;;0.68;0.68;;;;;;;;;;5089648;28;20020;-66
2021/01/19 12:49:59;;;;;;;1.17;0.50;;;;;;;;;;5084115;28;20070;-66
2021/01/19 12:52:24;;;;;;;1.30;0.50;;;;;;;;;;5090682;28;20262;-67
2021/01/19 12:54:49;;;;;;;0.37;0.33;;;;;;;;;;5091750;28;20032;-67
2021/01/19 12:57:14;;;;;;;2.38;0.30;;;;;;;;;;5084661;28;20278;-66
2021/01/19 12:59:40;;;;;;;1.45;0.73;;;;;;;;;;5082236;28;20464;-67
2021/01/19 13:02:05;;;;;;;4.93;1.48;;;;;;;;;;5088224;28;20022;-67
2021/01/19 13:04:31;;;;;;;1.25;0.57;;;;;;;;;;5078464;28;20020;-67
2021/01/19 13:06:56;;;;;;;0.88;0.50;;;;;;;;;;5089400;28;20050;-66
2021/01/19 13:09:21;;;;;;;0.52;0.30;;;;;;;;;;5081229;28;20036;-67
2021/01/19 13:11:46;;;;;;;2.40;0.52;;;;;;;;;;5087209;28;20099;-67
2021/01/19 13:14:11;;;;;;;3.38;0.68;;;;;;;;;;5087630;28;20523;-66
2021/01/19 13:16:37;;;;;;;1.38;0.80;;;;;;;;;;5088822;28;20069;-67
2021/01/19 13:19:02;;;;;;;2.33;0.98;;;;;;;;;;5090319;28;20020;-66
2021/01/19 13:21:27;;;;;;;1.88;0.80;;;;;;;;;;5087070;28;20024;-66
2021/01/19 13:23:52;;;;;;;3.50;0.90;;;;;;;;;;5084112;28;20365;-66
2021/01/19 13:26:17;;;;;;;0.70;0.50;;;;;;;;;;5090675;28;20405;-67
2021/01/19 13:28:43;;;;;;;1.23;0.70;;;;;;;;;;5085548;28;20055;-66
2021/01/19 13:31:08;;;;;;;1.67;0.85;;;;;;;;;;5090523;28;20049;-68
2021/01/19 13:33:33;;;;;;;1.77;1.10;;;;;;;;;;5071485;28;20070;-66
2021/01/19 13:35:58;;;;;;;1.10;0.60;;;;;;;;;;5089609;28;20028;-67
2021/01/19 13:38:23;;;;;;;1.27;0.90;;;;;;;;;;5081747;28;20052;-66
2021/01/19 13:40:49;;;;;;;1.45;0.75;;;;;;;;;;5081440;28;20266;-67
2021/01/19 13:43:14;;;;;;;0.85;0.65;;;;;;;;;;5091144;28;20024;-66
2021/01/19 13:45:39;;;;;;;2.30;0.90;;;;;;;;;;5085524;28;20016;-68
2021/01/19 13:48:04;;;;;;;2.35;0.82;;;;;;;;;;5081695;28;20020;-66
2021/01/19 13:50:29;;;;;;;1.90;0.82;;;;;;;;;;5085312;28;20022;-67
2021/01/19 13:52:55;;;;;;;7.83;0.90;;;;;;;;;;5088535;28;20020;-66
2021/01/19 13:55:20;;;;;;;1.65;1.00;;;;;;;;;;5089926;28;20352;-66
2021/01/19 13:57:45;;;;;;;2.85;0.77;;;;;;;;;;5090536;28;20360;-66
2021/01/19 14:00:10;;;;;;;13.37;0.90;;;;;;;;;;5070123;28;20094;-66
2021/01/19 14:02:36;;;;;;;4.78;1.40;;;;;;;;;;5089363;28;20277;-68
2021/01/19 14:05:01;;;;;;;2.08;0.60;;;;;;;;;;5086258;28;20016;-66
2021/01/19 14:07:26;;;;;;;1.98;1.00;;;;;;;;;;5090040;28;20069;-67
2021/01/19 14:09:51;;;;;;;2.35;1.30;;;;;;;;;;5089962;28;20072;-66
2021/01/19 14:12:17;;;;;;;2.10;1.27;;;;;;;;;;5090014;28;20020;-67
2021/01/19 14:14:42;;;;;;;4.23;2.13;;;;;;;;;;5088406;28;20078;-67
2021/01/19 14:17:09;;;;;;;1.60;0.85;;;;;;;;;;5084285;28;20281;-67
2021/01/19 14:19:34;;;;;;;3.38;1.17;;;;;;;;;;5088279;28;20012;-67
2021/01/19 14:22:00;;;;;;;4.43;0.80;;;;;;;;;;5090293;28;20567;-66
2021/01/19 14:24:26;;;;;;;1.80;0.80;;;;;;;;;;5088993;28;20332;-66
2021/01/19 14:26:51;;;;;;;1.80;1.17;;;;;;;;;;5088626;28;20449;-66
2021/01/19 14:29:17;;;;;;;1.05;0.90;;;;;;;;;;5089799;28;20098;-67
2021/01/19 14:31:45;;;;;;;1.98;0.80;;;;;;;;;;5086597;28;20032;-67
2021/01/19 14:34:11;;;;;;;2.35;1.20;;;;;;;;;;5085267;28;20478;-67
2021/01/19 14:36:36;;;;;;;3.97;1.10;;;;;;;;;;5086158;28;20021;-66
2021/01/19 14:39:02;;;;;;;1.98;1.00;;;;;;;;;;5088169;28;20039;-66
2021/01/19 14:41:27;;;;;;;1.63;0.85;;;;;;;;;;5085446;28;20465;-66